sensor_id;sensor_type;location;lat;lon;timestamp;pressure;altitude;pressure_sealevel;temperature;humidity
56719;BME280;42597;40.636;0.278;2024-03-29T00:00:41;95762.16;;;15.74;91.79
56719;BME280;42597;40.636;0.278;2024-03-29T00:03:08;95755.50;;;15.52;91.48
56719;BME280;42597;40.636;0.278;2024-03-29T00:05:34;95753.78;;;15.89;89.04
56719;BME280;42597;40.636;0.278;2024-03-29T00:08:00;95763.94;;;15.58;95.69
56719;BME280;42597;40.636;0.278;2024-03-29T00:10:26;95758.19;;;15.25;98.50
56719;BME280;42597;40.636;0.278;2024-03-29T00:12:51;95752.53;;;14.06;100.00
56719;BME280;42597;40.636;0.278;2024-03-29T00:15:17;95747.16;;;14.74;100.00
56719;BME280;42597;40.636;0.278;2024-03-29T00:17:43;95760.44;;;15.30;99.22
56719;BME280;42597;40.636;0.278;2024-03-29T00:20:08;95759.81;;;15.76;94.93
56719;BME280;42597;40.636;0.278;2024-03-29T00:22:34;95757.31;;;14.70;100.00
56719;BME280;42597;40.636;0.278;2024-03-29T00:25:00;95743.34;;;15.29;99.01
56719;BME280;42597;40.636;0.278;2024-03-29T00:27:26;95745.00;;;15.77;92.78
56719;BME280;42597;40.636;0.278;2024-03-29T00:29:54;95738.00;;;15.22;100.00
56719;BME280;42597;40.636;0.278;2024-03-29T00:32:20;95739.09;;;14.29;100.00
56719;BME280;42597;40.636;0.278;2024-03-29T00:34:45;95737.66;;;14.90;100.00
56719;BME280;42597;40.636;0.278;2024-03-29T00:37:11;95730.06;;;14.77;100.00
56719;BME280;42597;40.636;0.278;2024-03-29T00:39:37;95733.19;;;15.34;93.50
56719;BME280;42597;40.636;0.278;2024-03-29T00:42:03;95728.81;;;15.67;90.86
56719;BME280;42597;40.636;0.278;2024-03-29T00:44:32;95729.56;;;15.44;89.95
56719;BME280;42597;40.636;0.278;2024-03-29T00:46:57;95726.09;;;15.67;80.37
56719;BME280;42597;40.636;0.278;2024-03-29T00:49:23;95724.84;;;15.71;80.84
56719;BME280;42597;40.636;0.278;2024-03-29T00:51:49;95719.72;;;15.50;83.17
56719;BME280;42597;40.636;0.278;2024-03-29T00:54:14;95716.19;;;15.53;86.88
56719;BME280;42597;40.636;0.278;2024-03-29T00:56:40;95715.81;;;14.66;93.22
56719;BME280;42597;40.636;0.278;2024-03-29T00:59:05;95714.75;;;14.60;94.16
56719;BME280;42597;40.636;0.278;2024-03-29T01:01:31;95707.16;;;15.33;90.76
56719;BME280;42597;40.636;0.278;2024-03-29T01:03:57;95715.00;;;15.00;91.75
56719;BME280;42597;40.636;0.278;2024-03-29T01:06:23;95720.94;;;14.61;95.90
56719;BME280;42597;40.636;0.278;2024-03-29T01:08:49;95729.47;;;14.59;95.23
56719;BME280;42597;40.636;0.278;2024-03-29T01:11:14;95731.78;;;14.64;94.30
56719;BME280;42597;40.636;0.278;2024-03-29T01:13:40;95729.47;;;14.59;94.72
56719;BME280;42597;40.636;0.278;2024-03-29T01:16:06;95720.56;;;15.20;85.00
56719;BME280;42597;40.636;0.278;2024-03-29T01:18:31;95718.28;;;15.42;87.01
56719;BME280;42597;40.636;0.278;2024-03-29T01:20:58;95711.03;;;15.08;90.77
56719;BME280;42597;40.636;0.278;2024-03-29T01:23:23;95712.75;;;15.49;82.94
56719;BME280;42597;40.636;0.278;2024-03-29T01:25:49;95716.25;;;15.22;88.13
56719;BME280;42597;40.636;0.278;2024-03-29T01:28:14;95712.84;;;14.88;90.50
56719;BME280;42597;40.636;0.278;2024-03-29T01:30:40;95712.56;;;14.44;93.54
56719;BME280;42597;40.636;0.278;2024-03-29T01:33:05;95698.84;;;14.89;92.09
56719;BME280;42597;40.636;0.278;2024-03-29T01:35:31;95700.69;;;15.50;79.21
56719;BME280;42597;40.636;0.278;2024-03-29T01:37:56;95700.19;;;15.82;75.61
56719;BME280;42597;40.636;0.278;2024-03-29T01:40:22;95698.00;;;15.73;77.09
56719;BME280;42597;40.636;0.278;2024-03-29T01:42:47;95701.22;;;16.12;70.23
56719;BME280;42597;40.636;0.278;2024-03-29T01:45:13;95704.13;;;16.24;69.38
56719;BME280;42597;40.636;0.278;2024-03-29T01:47:39;95696.00;;;16.21;68.88
56719;BME280;42597;40.636;0.278;2024-03-29T01:50:05;95697.09;;;16.23;70.00
56719;BME280;42597;40.636;0.278;2024-03-29T01:52:31;95698.94;;;16.30;67.82
56719;BME280;42597;40.636;0.278;2024-03-29T01:54:57;95696.56;;;16.12;73.16
56719;BME280;42597;40.636;0.278;2024-03-29T01:57:23;95692.13;;;15.98;71.25
56719;BME280;42597;40.636;0.278;2024-03-29T01:59:49;95695.47;;;15.36;82.97
56719;BME280;42597;40.636;0.278;2024-03-29T02:02:15;95699.09;;;15.25;82.06
56719;BME280;42597;40.636;0.278;2024-03-29T02:04:41;95692.97;;;15.72;77.36
56719;BME280;42597;40.636;0.278;2024-03-29T02:07:07;95696.28;;;15.33;80.37
56719;BME280;42597;40.636;0.278;2024-03-29T02:09:33;95706.00;;;15.57;79.05
56719;BME280;42597;40.636;0.278;2024-03-29T02:11:58;95701.59;;;16.14;69.15
56719;BME280;42597;40.636;0.278;2024-03-29T02:14:24;95698.88;;;16.34;67.08
56719;BME280;42597;40.636;0.278;2024-03-29T02:16:49;95696.44;;;16.39;67.30
56719;BME280;42597;40.636;0.278;2024-03-29T02:19:15;95691.25;;;15.54;78.06
56719;BME280;42597;40.636;0.278;2024-03-29T02:21:43;95683.41;;;15.60;74.77
56719;BME280;42597;40.636;0.278;2024-03-29T02:24:10;95684.19;;;16.27;69.56
56719;BME280;42597;40.636;0.278;2024-03-29T02:26:37;95684.56;;;16.29;68.10
56719;BME280;42597;40.636;0.278;2024-03-29T02:29:07;95689.94;;;15.66;78.19
56719;BME280;42597;40.636;0.278;2024-03-29T02:31:34;95692.28;;;15.64;73.73
56719;BME280;42597;40.636;0.278;2024-03-29T02:33:59;95690.63;;;16.17;68.50
56719;BME280;42597;40.636;0.278;2024-03-29T02:36:25;95699.16;;;14.26;88.15
56719;BME280;42597;40.636;0.278;2024-03-29T02:38:50;95692.06;;;13.98;93.81
56719;BME280;42597;40.636;0.278;2024-03-29T02:41:16;95705.09;;;13.76;100.00
56719;BME280;42597;40.636;0.278;2024-03-29T02:43:41;95700.91;;;13.65;100.00
56719;BME280;42597;40.636;0.278;2024-03-29T02:46:07;95702.06;;;13.12;100.00
56719;BME280;42597;40.636;0.278;2024-03-29T02:48:33;95690.31;;;13.32;100.00
56719;BME280;42597;40.636;0.278;2024-03-29T02:50:58;95682.25;;;14.46;94.68
56719;BME280;42597;40.636;0.278;2024-03-29T02:53:24;95680.19;;;13.85;100.00
56719;BME280;42597;40.636;0.278;2024-03-29T02:55:49;95678.03;;;13.10;100.00
56719;BME280;42597;40.636;0.278;2024-03-29T02:58:15;95679.56;;;13.15;100.00
56719;BME280;42597;40.636;0.278;2024-03-29T03:00:40;95672.72;;;13.96;100.00
56719;BME280;42597;40.636;0.278;2024-03-29T03:03:06;95664.81;;;14.77;95.07
56719;BME280;42597;40.636;0.278;2024-03-29T03:05:31;95671.63;;;14.89;97.63
56719;BME280;42597;40.636;0.278;2024-03-29T03:07:58;95676.09;;;14.42;100.00
56719;BME280;42597;40.636;0.278;2024-03-29T03:10:48;95662.50;;;14.07;100.00
56719;BME280;42597;40.636;0.278;2024-03-29T03:13:28;95667.59;;;14.02;100.00
56719;BME280;42597;40.636;0.278;2024-03-29T03:15:54;95683.41;;;13.17;100.00
56719;BME280;42597;40.636;0.278;2024-03-29T03:18:20;95682.69;;;13.09;100.00
56719;BME280;42597;40.636;0.278;2024-03-29T03:20:53;95677.66;;;13.67;100.00
56719;BME280;42597;40.636;0.278;2024-03-29T03:23:19;95683.59;;;13.93;100.00
56719;BME280;42597;40.636;0.278;2024-03-29T03:25:53;95678.69;;;14.83;93.06
56719;BME280;42597;40.636;0.278;2024-03-29T03:28:18;95674.47;;;14.48;100.00
56719;BME280;42597;40.636;0.278;2024-03-29T03:30:44;95668.38;;;14.37;100.00
56719;BME280;42597;40.636;0.278;2024-03-29T03:33:09;95673.50;;;14.65;100.00
56719;BME280;42597;40.636;0.278;2024-03-29T03:35:35;95674.41;;;14.86;100.00
56719;BME280;42597;40.636;0.278;2024-03-29T03:38:00;95668.72;;;14.76;100.00
56719;BME280;42597;40.636;0.278;2024-03-29T03:40:26;95662.22;;;14.67;100.00
56719;BME280;42597;40.636;0.278;2024-03-29T03:42:52;95672.81;;;14.57;100.00
56719;BME280;42597;40.636;0.278;2024-03-29T03:45:17;95670.09;;;14.88;95.21
56719;BME280;42597;40.636;0.278;2024-03-29T03:47:43;95669.78;;;15.37;83.20
56719;BME280;42597;40.636;0.278;2024-03-29T03:50:08;95674.22;;;14.69;95.37
56719;BME280;42597;40.636;0.278;2024-03-29T03:52:34;95667.78;;;14.87;88.98
56719;BME280;42597;40.636;0.278;2024-03-29T03:54:59;95675.19;;;14.55;94.75
56719;BME280;42597;40.636;0.278;2024-03-29T03:57:25;95675.97;;;14.56;92.67
56719;BME280;42597;40.636;0.278;2024-03-29T03:59:51;95668.19;;;14.54;94.71
56719;BME280;42597;40.636;0.278;2024-03-29T04:02:16;95669.59;;;14.66;90.69
56719;BME280;42597;40.636;0.278;2024-03-29T04:04:42;95658.00;;;14.93;90.37
56719;BME280;42597;40.636;0.278;2024-03-29T04:07:08;95660.91;;;15.33;79.22
56719;BME280;42597;40.636;0.278;2024-03-29T04:09:34;95662.25;;;14.94;85.13
56719;BME280;42597;40.636;0.278;2024-03-29T04:11:59;95654.66;;;14.51;89.59
56719;BME280;42597;40.636;0.278;2024-03-29T04:14:25;95658.84;;;14.86;84.89
56719;BME280;42597;40.636;0.278;2024-03-29T04:16:51;95661.59;;;14.18;91.21
56719;BME280;42597;40.636;0.278;2024-03-29T04:19:16;95655.44;;;14.51;88.36
56719;BME280;42597;40.636;0.278;2024-03-29T04:21:42;95652.16;;;14.29;89.89
56719;BME280;42597;40.636;0.278;2024-03-29T04:24:08;95641.06;;;14.17;91.52
56719;BME280;42597;40.636;0.278;2024-03-29T04:26:35;95651.97;;;13.75;94.91
56719;BME280;42597;40.636;0.278;2024-03-29T04:29:02;95635.75;;;13.68;95.27
56719;BME280;42597;40.636;0.278;2024-03-29T04:31:28;95643.84;;;14.10;92.15
56719;BME280;42597;40.636;0.278;2024-03-29T04:33:53;95639.44;;;13.89;92.05
56719;BME280;42597;40.636;0.278;2024-03-29T04:36:19;95633.81;;;14.03;91.42
56719;BME280;42597;40.636;0.278;2024-03-29T04:38:45;95633.03;;;14.06;91.22
56719;BME280;42597;40.636;0.278;2024-03-29T04:41:11;95638.47;;;14.06;91.30
56719;BME280;42597;40.636;0.278;2024-03-29T04:43:36;95637.03;;;13.94;92.08
56719;BME280;42597;40.636;0.278;2024-03-29T04:48:31;95638.31;;;14.20;87.48
56719;BME280;42597;40.636;0.278;2024-03-29T04:50:57;95632.47;;;15.10;78.49
56719;BME280;42597;40.636;0.278;2024-03-29T04:53:23;95640.56;;;14.25;87.11
56719;BME280;42597;40.636;0.278;2024-03-29T04:55:56;95637.41;;;14.30;87.38
56719;BME280;42597;40.636;0.278;2024-03-29T04:58:22;95637.22;;;13.76;92.23
56719;BME280;42597;40.636;0.278;2024-03-29T05:00:49;95638.97;;;13.94;91.10
56719;BME280;42597;40.636;0.278;2024-03-29T05:03:17;95643.25;;;13.53;96.29
56719;BME280;42597;40.636;0.278;2024-03-29T05:05:43;95647.22;;;13.42;98.52
56719;BME280;42597;40.636;0.278;2024-03-29T05:08:09;95650.84;;;13.21;100.00
56719;BME280;42597;40.636;0.278;2024-03-29T05:10:35;95654.59;;;13.41;100.00
56719;BME280;42597;40.636;0.278;2024-03-29T05:13:01;95660.22;;;13.65;100.00
56719;BME280;42597;40.636;0.278;2024-03-29T05:15:27;95657.41;;;14.13;91.36
56719;BME280;42597;40.636;0.278;2024-03-29T05:17:53;95655.44;;;14.14;92.70
56719;BME280;42597;40.636;0.278;2024-03-29T05:20:19;95656.94;;;13.84;95.52
56719;BME280;42597;40.636;0.278;2024-03-29T05:22:45;95667.59;;;13.64;97.29
56719;BME280;42597;40.636;0.278;2024-03-29T05:25:10;95661.97;;;13.37;99.38
56719;BME280;42597;40.636;0.278;2024-03-29T05:27:36;95652.34;;;14.15;91.05
56719;BME280;42597;40.636;0.278;2024-03-29T05:30:03;95661.25;;;13.33;96.53
56719;BME280;42597;40.636;0.278;2024-03-29T05:32:32;95657.69;;;14.22;88.61
56719;BME280;42597;40.636;0.278;2024-03-29T05:34:58;95655.47;;;14.78;81.16
56719;BME280;42597;40.636;0.278;2024-03-29T05:37:24;95651.88;;;15.12;77.92
56719;BME280;42597;40.636;0.278;2024-03-29T05:39:51;95651.28;;;14.40;84.42
56719;BME280;42597;40.636;0.278;2024-03-29T05:42:29;95648.00;;;14.21;87.22
56719;BME280;42597;40.636;0.278;2024-03-29T05:44:55;95652.00;;;13.72;91.98
56719;BME280;42597;40.636;0.278;2024-03-29T05:47:20;95662.66;;;13.93;91.00
56719;BME280;42597;40.636;0.278;2024-03-29T05:49:51;95650.63;;;14.63;82.15
56719;BME280;42597;40.636;0.278;2024-03-29T05:52:17;95663.34;;;14.01;90.09
56719;BME280;42597;40.636;0.278;2024-03-29T05:54:44;95656.25;;;14.11;89.68
56719;BME280;42597;40.636;0.278;2024-03-29T05:57:10;95661.22;;;13.81;94.68
56719;BME280;42597;40.636;0.278;2024-03-29T05:59:36;95656.72;;;13.64;96.52
56719;BME280;42597;40.636;0.278;2024-03-29T06:02:02;95659.84;;;14.04;92.42
56719;BME280;42597;40.636;0.278;2024-03-29T06:04:28;95656.72;;;13.64;96.60
56719;BME280;42597;40.636;0.278;2024-03-29T06:07:04;95662.59;;;14.00;91.68
56719;BME280;42597;40.636;0.278;2024-03-29T06:09:29;95662.50;;;14.07;91.20
56719;BME280;42597;40.636;0.278;2024-03-29T06:11:56;95666.94;;;13.46;95.62
56719;BME280;42597;40.636;0.278;2024-03-29T06:14:25;95659.38;;;14.09;90.30
56719;BME280;42597;40.636;0.278;2024-03-29T06:17:09;95671.56;;;14.31;86.12
56719;BME280;42597;40.636;0.278;2024-03-29T06:19:54;95658.94;;;14.52;82.76
56719;BME280;42597;40.636;0.278;2024-03-29T06:22:25;95665.75;;;14.29;86.08
56719;BME280;42597;40.636;0.278;2024-03-29T06:24:53;95660.34;;;13.92;89.54
56719;BME280;42597;40.636;0.278;2024-03-29T06:27:19;95659.56;;;13.50;93.09
56719;BME280;42597;40.636;0.278;2024-03-29T06:29:50;95659.78;;;13.66;92.37
56719;BME280;42597;40.636;0.278;2024-03-29T06:32:16;95652.22;;;14.60;81.79
56719;BME280;42597;40.636;0.278;2024-03-29T06:34:46;95648.41;;;14.85;80.50
56719;BME280;42597;40.636;0.278;2024-03-29T06:37:12;95652.84;;;14.37;85.02
56719;BME280;42597;40.636;0.278;2024-03-29T06:39:38;95647.84;;;13.98;89.26
56719;BME280;42597;40.636;0.278;2024-03-29T06:42:04;95644.59;;;14.14;87.81
56719;BME280;42597;40.636;0.278;2024-03-29T06:44:33;95637.31;;;14.72;80.37
56719;BME280;42597;40.636;0.278;2024-03-29T06:46:59;95640.97;;;14.58;84.92
56719;BME280;42597;40.636;0.278;2024-03-29T06:49:24;95641.75;;;14.24;89.26
56719;BME280;42597;40.636;0.278;2024-03-29T06:51:50;95649.75;;;13.63;96.50
56719;BME280;42597;40.636;0.278;2024-03-29T06:54:16;95655.84;;;13.74;97.16
56719;BME280;42597;40.636;0.278;2024-03-29T06:56:41;95653.19;;;14.08;93.65
56719;BME280;42597;40.636;0.278;2024-03-29T06:59:07;95650.34;;;13.81;98.17
56719;BME280;42597;40.636;0.278;2024-03-29T07:01:33;95650.91;;;14.38;90.48
56719;BME280;42597;40.636;0.278;2024-03-29T07:03:59;95645.00;;;15.04;81.13
56719;BME280;42597;40.636;0.278;2024-03-29T07:06:25;95648.91;;;15.03;85.80
56719;BME280;42597;40.636;0.278;2024-03-29T07:08:50;95651.50;;;14.83;89.87
56719;BME280;42597;40.636;0.278;2024-03-29T07:11:16;95656.81;;;14.63;93.25
56719;BME280;42597;40.636;0.278;2024-03-29T07:13:42;95652.34;;;14.46;97.01
56719;BME280;42597;40.636;0.278;2024-03-29T07:16:08;95643.78;;;14.81;91.41
56719;BME280;42597;40.636;0.278;2024-03-29T07:18:33;95655.22;;;14.96;93.15
56719;BME280;42597;40.636;0.278;2024-03-29T07:20:59;95652.00;;;15.05;92.97
56719;BME280;42597;40.636;0.278;2024-03-29T07:23:25;95657.38;;;15.09;95.32
56719;BME280;42597;40.636;0.278;2024-03-29T07:25:58;95654.19;;;14.87;95.52
56719;BME280;42597;40.636;0.278;2024-03-29T07:28:25;95651.94;;;14.81;97.56
56719;BME280;42597;40.636;0.278;2024-03-29T07:30:50;95651.16;;;14.81;96.84
56719;BME280;42597;40.636;0.278;2024-03-29T07:33:19;95644.31;;;14.69;97.68
56719;BME280;42597;40.636;0.278;2024-03-29T07:35:47;95650.22;;;14.91;95.75
56719;BME280;42597;40.636;0.278;2024-03-29T07:38:16;95633.00;;;15.01;94.88
56719;BME280;42597;40.636;0.278;2024-03-29T07:40:43;95634.13;;;15.04;95.76
56719;BME280;42597;40.636;0.278;2024-03-29T07:43:09;95626.69;;;15.08;95.17
56719;BME280;42597;40.636;0.278;2024-03-29T07:45:35;95626.28;;;15.10;95.24
56719;BME280;42597;40.636;0.278;2024-03-29T07:48:00;95632.13;;;15.08;95.42
56719;BME280;42597;40.636;0.278;2024-03-29T07:50:26;95640.88;;;15.19;95.70
56719;BME280;42597;40.636;0.278;2024-03-29T07:52:55;95643.09;;;15.28;93.93
56719;BME280;42597;40.636;0.278;2024-03-29T07:55:21;95635.22;;;15.34;94.16
56719;BME280;42597;40.636;0.278;2024-03-29T07:57:46;95625.59;;;15.52;94.59
56719;BME280;42597;40.636;0.278;2024-03-29T08:00:13;95626.34;;;15.53;93.98
56719;BME280;42597;40.636;0.278;2024-03-29T08:02:39;95627.88;;;15.54;93.00
56719;BME280;42597;40.636;0.278;2024-03-29T08:05:05;95613.47;;;15.34;94.57
56719;BME280;42597;40.636;0.278;2024-03-29T08:07:34;95618.31;;;15.46;93.20
56719;BME280;42597;40.636;0.278;2024-03-29T08:10:00;95612.94;;;15.66;93.03
56719;BME280;42597;40.636;0.278;2024-03-29T08:12:25;95615.13;;;15.74;91.68
56719;BME280;42597;40.636;0.278;2024-03-29T08:14:51;95611.19;;;15.75;91.05
56719;BME280;42597;40.636;0.278;2024-03-29T08:17:17;95612.81;;;15.73;91.94
56719;BME280;42597;40.636;0.278;2024-03-29T08:19:43;95600.31;;;15.75;91.88
56719;BME280;42597;40.636;0.278;2024-03-29T08:22:09;95592.22;;;15.92;91.47
56719;BME280;42597;40.636;0.278;2024-03-29T08:24:37;95602.78;;;16.10;89.56
56719;BME280;42597;40.636;0.278;2024-03-29T08:27:03;95587.84;;;16.18;88.62
56719;BME280;42597;40.636;0.278;2024-03-29T08:29:29;95590.75;;;16.27;86.97
56719;BME280;42597;40.636;0.278;2024-03-29T08:31:55;95592.63;;;16.50;85.92
56719;BME280;42597;40.636;0.278;2024-03-29T08:34:20;95586.66;;;16.55;85.27
56719;BME280;42597;40.636;0.278;2024-03-29T08:36:46;95594.47;;;16.37;84.37
56719;BME280;42597;40.636;0.278;2024-03-29T08:39:12;95596.94;;;16.47;84.99
56719;BME280;42597;40.636;0.278;2024-03-29T08:41:38;95598.22;;;16.43;84.43
56719;BME280;42597;40.636;0.278;2024-03-29T08:44:05;95597.50;;;16.59;84.59
56719;BME280;42597;40.636;0.278;2024-03-29T08:46:31;95592.03;;;16.78;83.60
56719;BME280;42597;40.636;0.278;2024-03-29T08:48:57;95599.53;;;16.74;82.15
56719;BME280;42597;40.636;0.278;2024-03-29T08:51:23;95615.16;;;16.90;84.49
56719;BME280;42597;40.636;0.278;2024-03-29T08:53:49;95605.47;;;17.06;83.52
56719;BME280;42597;40.636;0.278;2024-03-29T08:56:15;95607.75;;;17.07;84.01
56719;BME280;42597;40.636;0.278;2024-03-29T08:58:41;95601.97;;;17.21;82.73
56719;BME280;42597;40.636;0.278;2024-03-29T09:01:08;95609.81;;;17.19;78.80
56719;BME280;42597;40.636;0.278;2024-03-29T09:03:34;95603.31;;;17.13;83.92
56719;BME280;42597;40.636;0.278;2024-03-29T09:05:59;95601.44;;;17.10;84.65
56719;BME280;42597;40.636;0.278;2024-03-29T09:08:25;95602.72;;;17.22;81.31
56719;BME280;42597;40.636;0.278;2024-03-29T09:10:51;95591.97;;;17.15;82.51
56719;BME280;42597;40.636;0.278;2024-03-29T09:13:17;95590.69;;;17.36;84.00
56719;BME280;42597;40.636;0.278;2024-03-29T09:15:42;95586.66;;;17.40;83.33
56719;BME280;42597;40.636;0.278;2024-03-29T09:18:08;95578.31;;;17.31;74.66
56719;BME280;42597;40.636;0.278;2024-03-29T09:21:01;95592.41;;;17.46;84.71
56719;BME280;42597;40.636;0.278;2024-03-29T09:23:27;95590.50;;;17.59;83.28
56719;BME280;42597;40.636;0.278;2024-03-29T09:25:56;95590.94;;;17.58;86.22
56719;BME280;42597;40.636;0.278;2024-03-29T09:28:23;95605.53;;;17.35;80.32
56719;BME280;42597;40.636;0.278;2024-03-29T09:30:49;95592.38;;;17.62;80.09
56719;BME280;42597;40.636;0.278;2024-03-29T09:33:15;95597.50;;;17.44;74.81
56719;BME280;42597;40.636;0.278;2024-03-29T09:35:41;95589.25;;;17.93;84.59
56719;BME280;42597;40.636;0.278;2024-03-29T09:38:07;95585.78;;;17.76;84.11
56719;BME280;42597;40.636;0.278;2024-03-29T09:40:33;95587.97;;;17.97;84.67
56719;BME280;42597;40.636;0.278;2024-03-29T09:43:01;95586.56;;;17.76;85.77
56719;BME280;42597;40.636;0.278;2024-03-29T09:45:34;95584.94;;;18.08;85.21
56719;BME280;42597;40.636;0.278;2024-03-29T09:48:03;95577.75;;;18.14;85.89
56719;BME280;42597;40.636;0.278;2024-03-29T09:50:33;95584.84;;;17.83;83.29
56719;BME280;42597;40.636;0.278;2024-03-29T09:53:06;95586.00;;;17.98;82.66
56719;BME280;42597;40.636;0.278;2024-03-29T09:55:35;95575.13;;;17.82;73.32
56719;BME280;42597;40.636;0.278;2024-03-29T09:58:02;95582.13;;;18.24;84.48
56719;BME280;42597;40.636;0.278;2024-03-29T10:00:28;95576.81;;;18.34;84.88
56719;BME280;42597;40.636;0.278;2024-03-29T10:02:56;95579.75;;;18.27;85.45
56719;BME280;42597;40.636;0.278;2024-03-29T10:05:29;95579.88;;;17.94;74.41
56719;BME280;42597;40.636;0.278;2024-03-29T10:07:56;95571.00;;;18.32;83.79
56719;BME280;42597;40.636;0.278;2024-03-29T10:10:31;95579.31;;;18.41;84.53
56719;BME280;42597;40.636;0.278;2024-03-29T10:12:57;95564.22;;;18.36;82.94
56719;BME280;42597;40.636;0.278;2024-03-29T10:15:24;95557.03;;;18.55;82.60
56719;BME280;42597;40.636;0.278;2024-03-29T10:17:52;95551.44;;;18.59;83.84
56719;BME280;42597;40.636;0.278;2024-03-29T10:20:19;95557.03;;;18.68;81.26
56719;BME280;42597;40.636;0.278;2024-03-29T10:22:45;95545.44;;;18.64;77.91
56719;BME280;42597;40.636;0.278;2024-03-29T10:25:15;95544.13;;;18.68;79.44
56719;BME280;42597;40.636;0.278;2024-03-29T10:27:41;95541.38;;;18.56;78.09
56719;BME280;42597;40.636;0.278;2024-03-29T10:30:08;95530.66;;;18.61;81.24
56719;BME280;42597;40.636;0.278;2024-03-29T10:32:38;95534.72;;;18.69;79.09
56719;BME280;42597;40.636;0.278;2024-03-29T10:35:08;95543.91;;;18.50;80.40
56719;BME280;42597;40.636;0.278;2024-03-29T10:37:35;95530.66;;;18.61;77.32
56719;BME280;42597;40.636;0.278;2024-03-29T10:40:10;95527.25;;;18.57;80.54
56719;BME280;42597;40.636;0.278;2024-03-29T10:42:39;95519.38;;;18.59;80.06
56719;BME280;42597;40.636;0.278;2024-03-29T10:45:06;95521.03;;;18.57;79.26
56719;BME280;42597;40.636;0.278;2024-03-29T10:47:33;95522.69;;;18.67;79.13
56719;BME280;42597;40.636;0.278;2024-03-29T10:49:59;95522.03;;;18.50;80.01
56719;BME280;42597;40.636;0.278;2024-03-29T10:52:26;95523.34;;;18.58;82.87
56719;BME280;42597;40.636;0.278;2024-03-29T10:54:53;95520.06;;;18.89;80.18
56719;BME280;42597;40.636;0.278;2024-03-29T10:57:24;95523.34;;;18.71;80.63
56719;BME280;42597;40.636;0.278;2024-03-29T11:00:04;95516.31;;;18.32;84.03
56719;BME280;42597;40.636;0.278;2024-03-29T11:05:18;95495.75;;;18.40;85.22
56719;BME280;42597;40.636;0.278;2024-03-29T11:07:45;95497.28;;;18.66;81.62
56719;BME280;42597;40.636;0.278;2024-03-29T11:10:18;95496.75;;;18.59;82.95
56719;BME280;42597;40.636;0.278;2024-03-29T11:15:29;95489.63;;;18.61;84.15
56719;BME280;42597;40.636;0.278;2024-03-29T11:17:56;95489.31;;;18.72;83.62
56719;BME280;42597;40.636;0.278;2024-03-29T11:20:27;95482.06;;;18.27;84.53
56719;BME280;42597;40.636;0.278;2024-03-29T11:23:14;95484.72;;;18.31;83.65
56719;BME280;42597;40.636;0.278;2024-03-29T11:25:43;95476.38;;;18.09;84.89
56719;BME280;42597;40.636;0.278;2024-03-29T11:28:11;95475.94;;;18.36;83.78
56719;BME280;42597;40.636;0.278;2024-03-29T11:30:49;95472.69;;;18.54;81.92
56719;BME280;42597;40.636;0.278;2024-03-29T11:33:50;95459.78;;;18.41;81.56
56719;BME280;42597;40.636;0.278;2024-03-29T11:36:24;95459.78;;;18.41;82.45
56719;BME280;42597;40.636;0.278;2024-03-29T11:38:55;95453.53;;;18.54;81.47
56719;BME280;42597;40.636;0.278;2024-03-29T11:41:26;95456.13;;;18.57;80.63
56719;BME280;42597;40.636;0.278;2024-03-29T11:43:56;95439.88;;;19.01;78.74
56719;BME280;42597;40.636;0.278;2024-03-29T11:46:23;95444.00;;;18.84;78.54
56719;BME280;42597;40.636;0.278;2024-03-29T11:48:50;95440.03;;;18.97;77.71
56719;BME280;42597;40.636;0.278;2024-03-29T11:51:19;95438.00;;;19.11;76.95
56719;BME280;42597;40.636;0.278;2024-03-29T11:53:48;95433.78;;;18.97;75.81
56719;BME280;42597;40.636;0.278;2024-03-29T11:56:16;95423.81;;;19.03;75.00
56719;BME280;42597;40.636;0.278;2024-03-29T11:58:41;95426.53;;;19.03;71.99
56719;BME280;42597;40.636;0.278;2024-03-29T12:01:07;95428.56;;;18.77;72.39
56719;BME280;42597;40.636;0.278;2024-03-29T12:03:38;95429.19;;;18.94;73.21
56719;BME280;42597;40.636;0.278;2024-03-29T12:06:04;95424.53;;;18.82;73.25
56719;BME280;42597;40.636;0.278;2024-03-29T12:08:35;95418.13;;;18.97;71.75
56719;BME280;42597;40.636;0.278;2024-03-29T12:11:02;95419.78;;;18.95;72.85
56719;BME280;42597;40.636;0.278;2024-03-29T12:13:29;95410.63;;;18.63;73.24
56719;BME280;42597;40.636;0.278;2024-03-29T12:15:55;95412.16;;;18.77;72.34
56719;BME280;42597;40.636;0.278;2024-03-29T12:18:23;95398.66;;;18.95;72.09
56719;BME280;42597;40.636;0.278;2024-03-29T12:20:50;95394.56;;;19.00;73.07
56719;BME280;42597;40.636;0.278;2024-03-29T12:23:17;95393.28;;;18.92;71.72
56719;BME280;42597;40.636;0.278;2024-03-29T12:25:44;95400.53;;;18.86;71.46
56719;BME280;42597;40.636;0.278;2024-03-29T12:28:11;95382.56;;;19.19;69.68
56719;BME280;42597;40.636;0.278;2024-03-29T12:30:40;95377.28;;;19.47;69.21
56719;BME280;42597;40.636;0.278;2024-03-29T12:33:09;95369.78;;;19.38;68.58
56719;BME280;42597;40.636;0.278;2024-03-29T12:35:37;95371.94;;;19.43;67.35
56719;BME280;42597;40.636;0.278;2024-03-29T12:38:04;95366.06;;;19.54;66.37
56719;BME280;42597;40.636;0.278;2024-03-29T12:40:32;95360.75;;;19.82;65.36
56719;BME280;42597;40.636;0.278;2024-03-29T12:43:06;95351.97;;;19.87;65.41
56719;BME280;42597;40.636;0.278;2024-03-29T12:45:34;95353.50;;;19.97;61.80
56719;BME280;42597;40.636;0.278;2024-03-29T12:48:00;95342.19;;;19.86;61.22
56719;BME280;42597;40.636;0.278;2024-03-29T12:50:29;95346.72;;;20.11;55.81
56719;BME280;42597;40.636;0.278;2024-03-29T12:53:00;95347.34;;;19.75;54.82
56719;BME280;42597;40.636;0.278;2024-03-29T12:55:27;95342.19;;;19.86;56.20
56719;BME280;42597;40.636;0.278;2024-03-29T12:57:56;95348.53;;;19.52;52.71
56719;BME280;42597;40.636;0.278;2024-03-29T13:00:22;95330.19;;;19.61;56.02
56719;BME280;42597;40.636;0.278;2024-03-29T13:02:49;95343.34;;;19.66;62.80
56719;BME280;42597;40.636;0.278;2024-03-29T13:05:15;95336.25;;;19.78;63.78
56719;BME280;42597;40.636;0.278;2024-03-29T13:07:41;95325.28;;;19.56;60.23